sensor_id;sensor_type;location;lat;lon;timestamp;P1;durP1;ratioP1;P2;durP2;ratioP2
26062;SDS011;13837;48.562;12.108;2022-09-13T00:01:46;23.10;;;21.17;;
26062;SDS011;13837;48.562;12.108;2022-09-13T00:04:11;22.33;;;20.23;;
26062;SDS011;13837;48.562;12.108;2022-09-13T00:06:37;22.58;;;20.52;;
26062;SDS011;13837;48.562;12.108;2022-09-13T00:09:03;23.20;;;21.27;;
26062;SDS011;13837;48.562;12.108;2022-09-13T00:11:29;22.08;;;19.98;;
26062;SDS011;13837;48.562;12.108;2022-09-13T00:13:56;22.73;;;20.73;;
26062;SDS011;13837;48.562;12.108;2022-09-13T00:16:23;23.50;;;21.30;;
26062;SDS011;13837;48.562;12.108;2022-09-13T00:18:51;22.20;;;20.30;;
26062;SDS011;13837;48.562;12.108;2022-09-13T00:21:18;23.02;;;20.80;;
26062;SDS011;13837;48.562;12.108;2022-09-13T00:23:49;22.25;;;20.10;;
26062;SDS011;13837;48.562;12.108;2022-09-13T00:26:21;22.75;;;20.52;;
26062;SDS011;13837;48.562;12.108;2022-09-13T00:28:48;21.67;;;19.60;;
26062;SDS011;13837;48.562;12.108;2022-09-13T00:31:15;23.02;;;20.90;;
26062;SDS011;13837;48.562;12.108;2022-09-13T00:33:41;23.15;;;20.95;;
26062;SDS011;13837;48.562;12.108;2022-09-13T00:36:08;22.40;;;20.33;;
26062;SDS011;13837;48.562;12.108;2022-09-13T00:38:35;20.65;;;18.92;;
26062;SDS011;13837;48.562;12.108;2022-09-13T00:41:03;21.30;;;19.50;;
26062;SDS011;13837;48.562;12.108;2022-09-13T00:46:11;22.02;;;20.23;;
26062;SDS011;13837;48.562;12.108;2022-09-13T00:48:41;20.48;;;18.95;;
26062;SDS011;13837;48.562;12.108;2022-09-13T00:51:11;20.38;;;18.63;;
26062;SDS011;13837;48.562;12.108;2022-09-13T00:53:38;21.10;;;19.05;;
26062;SDS011;13837;48.562;12.108;2022-09-13T00:56:12;20.50;;;18.80;;
26062;SDS011;13837;48.562;12.108;2022-09-13T00:58:48;21.15;;;19.25;;
26062;SDS011;13837;48.562;12.108;2022-09-13T01:01:19;20.90;;;19.15;;
26062;SDS011;13837;48.562;12.108;2022-09-13T01:03:48;20.67;;;19.08;;
26062;SDS011;13837;48.562;12.108;2022-09-13T01:06:16;21.40;;;19.50;;
26062;SDS011;13837;48.562;12.108;2022-09-13T01:08:45;21.40;;;19.60;;
26062;SDS011;13837;48.562;12.108;2022-09-13T01:11:59;21.90;;;19.90;;
26062;SDS011;13837;48.562;12.108;2022-09-13T01:14:11;21.73;;;19.83;;
26062;SDS011;13837;48.562;12.108;2022-09-13T01:16:37;22.90;;;20.58;;
26062;SDS011;13837;48.562;12.108;2022-09-13T01:19:03;23.02;;;20.73;;
26062;SDS011;13837;48.562;12.108;2022-09-13T01:21:38;22.63;;;20.73;;
26062;SDS011;13837;48.562;12.108;2022-09-13T01:25:10;22.73;;;20.52;;
26062;SDS011;13837;48.562;12.108;2022-09-13T01:30:22;23.88;;;21.58;;
26062;SDS011;13837;48.562;12.108;2022-09-13T01:38:44;22.85;;;20.63;;
26062;SDS011;13837;48.562;12.108;2022-09-13T01:44:28;23.10;;;21.10;;
26062;SDS011;13837;48.562;12.108;2022-09-13T01:52:44;22.25;;;20.40;;
26062;SDS011;13837;48.562;12.108;2022-09-13T01:58:08;24.70;;;22.23;;
26062;SDS011;13837;48.562;12.108;2022-09-13T02:00:44;24.48;;;22.10;;
26062;SDS011;13837;48.562;12.108;2022-09-13T02:03:30;25.88;;;23.30;;
26062;SDS011;13837;48.562;12.108;2022-09-13T02:06:04;23.40;;;21.20;;
26062;SDS011;13837;48.562;12.108;2022-09-13T02:08:41;22.95;;;20.92;;
26062;SDS011;13837;48.562;12.108;2022-09-13T02:11:13;23.58;;;21.27;;
26062;SDS011;13837;48.562;12.108;2022-09-13T02:19:18;23.05;;;21.05;;
26062;SDS011;13837;48.562;12.108;2022-09-13T02:21:51;21.73;;;19.92;;
26062;SDS011;13837;48.562;12.108;2022-09-13T02:24:22;21.55;;;19.80;;
26062;SDS011;13837;48.562;12.108;2022-09-13T02:26:53;22.25;;;20.05;;
26062;SDS011;13837;48.562;12.108;2022-09-13T02:29:22;23.60;;;21.55;;
26062;SDS011;13837;48.562;12.108;2022-09-13T02:31:53;23.30;;;21.40;;
26062;SDS011;13837;48.562;12.108;2022-09-13T02:34:35;23.63;;;21.40;;
26062;SDS011;13837;48.562;12.108;2022-09-13T02:37:08;23.00;;;21.00;;
26062;SDS011;13837;48.562;12.108;2022-09-13T02:39:36;24.05;;;21.95;;
26062;SDS011;13837;48.562;12.108;2022-09-13T02:42:16;24.10;;;21.88;;
26062;SDS011;13837;48.562;12.108;2022-09-13T02:44:50;23.48;;;21.10;;
26062;SDS011;13837;48.562;12.108;2022-09-13T02:47:30;22.83;;;20.88;;
26062;SDS011;13837;48.562;12.108;2022-09-13T02:50:08;22.33;;;20.42;;
26062;SDS011;13837;48.562;12.108;2022-09-13T02:52:58;21.88;;;19.98;;
26062;SDS011;13837;48.562;12.108;2022-09-13T02:55:58;21.90;;;19.90;;
26062;SDS011;13837;48.562;12.108;2022-09-13T02:58:44;25.27;;;23.42;;
26062;SDS011;13837;48.562;12.108;2022-09-13T03:01:11;21.23;;;19.30;;
26062;SDS011;13837;48.562;12.108;2022-09-13T03:03:37;23.35;;;21.15;;
26062;SDS011;13837;48.562;12.108;2022-09-13T03:06:03;21.05;;;19.27;;
26062;SDS011;13837;48.562;12.108;2022-09-13T03:08:29;21.95;;;20.08;;
26062;SDS011;13837;48.562;12.108;2022-09-13T03:10:58;20.70;;;18.95;;
26062;SDS011;13837;48.562;12.108;2022-09-13T03:13:52;20.25;;;18.55;;
26062;SDS011;13837;48.562;12.108;2022-09-13T03:28:13;22.10;;;20.30;;
26062;SDS011;13837;48.562;12.108;2022-09-13T03:31:07;20.58;;;18.88;;
26062;SDS011;13837;48.562;12.108;2022-09-13T03:33:47;22.27;;;20.25;;
26062;SDS011;13837;48.562;12.108;2022-09-13T03:36:20;21.42;;;19.52;;
26062;SDS011;13837;48.562;12.108;2022-09-13T03:41:31;21.55;;;19.77;;
26062;SDS011;13837;48.562;12.108;2022-09-13T03:46:36;20.88;;;19.08;;
26062;SDS011;13837;48.562;12.108;2022-09-13T03:49:05;21.40;;;19.55;;
26062;SDS011;13837;48.562;12.108;2022-09-13T03:51:34;25.25;;;22.67;;
26062;SDS011;13837;48.562;12.108;2022-09-13T03:54:05;25.65;;;23.08;;
26062;SDS011;13837;48.562;12.108;2022-09-13T03:56:35;25.23;;;22.98;;
26062;SDS011;13837;48.562;12.108;2022-09-13T03:59:01;26.27;;;23.58;;
26062;SDS011;13837;48.562;12.108;2022-09-13T04:01:27;25.60;;;23.20;;
26062;SDS011;13837;48.562;12.108;2022-09-13T04:03:53;24.55;;;22.20;;
26062;SDS011;13837;48.562;12.108;2022-09-13T04:06:19;23.70;;;21.70;;
26062;SDS011;13837;48.562;12.108;2022-09-13T04:08:44;23.80;;;21.70;;
26062;SDS011;13837;48.562;12.108;2022-09-13T04:11:10;22.88;;;20.90;;
26062;SDS011;13837;48.562;12.108;2022-09-13T04:13:36;22.70;;;20.70;;
26062;SDS011;13837;48.562;12.108;2022-09-13T04:16:02;22.35;;;20.45;;
26062;SDS011;13837;48.562;12.108;2022-09-13T04:18:29;22.85;;;20.67;;
26062;SDS011;13837;48.562;12.108;2022-09-13T04:20:56;22.35;;;20.33;;
26062;SDS011;13837;48.562;12.108;2022-09-13T04:23:24;23.83;;;21.15;;
26062;SDS011;13837;48.562;12.108;2022-09-13T04:25:51;23.00;;;20.73;;
26062;SDS011;13837;48.562;12.108;2022-09-13T04:28:17;22.13;;;20.00;;
26062;SDS011;13837;48.562;12.108;2022-09-13T04:30:47;22.67;;;20.48;;
26062;SDS011;13837;48.562;12.108;2022-09-13T04:33:15;22.40;;;20.25;;
26062;SDS011;13837;48.562;12.108;2022-09-13T04:35:43;22.67;;;20.55;;
26062;SDS011;13837;48.562;12.108;2022-09-13T04:38:09;22.00;;;20.08;;
26062;SDS011;13837;48.562;12.108;2022-09-13T04:40:35;22.48;;;20.48;;
26062;SDS011;13837;48.562;12.108;2022-09-13T04:43:01;23.13;;;20.85;;
26062;SDS011;13837;48.562;12.108;2022-09-13T04:45:28;22.02;;;19.92;;
26062;SDS011;13837;48.562;12.108;2022-09-13T04:47:54;22.75;;;20.58;;
26062;SDS011;13837;48.562;12.108;2022-09-13T04:50:21;34.40;;;19.13;;
26062;SDS011;13837;48.562;12.108;2022-09-13T04:52:48;21.92;;;19.45;;
26062;SDS011;13837;48.562;12.108;2022-09-13T04:55:14;20.70;;;18.88;;
26062;SDS011;13837;48.562;12.108;2022-09-13T04:57:40;21.85;;;19.90;;
26062;SDS011;13837;48.562;12.108;2022-09-13T05:00:06;20.80;;;19.10;;
26062;SDS011;13837;48.562;12.108;2022-09-13T05:02:33;21.65;;;19.90;;
26062;SDS011;13837;48.562;12.108;2022-09-13T05:04:59;21.05;;;19.25;;
26062;SDS011;13837;48.562;12.108;2022-09-13T05:07:25;21.95;;;19.95;;
26062;SDS011;13837;48.562;12.108;2022-09-13T05:09:50;22.08;;;19.95;;
26062;SDS011;13837;48.562;12.108;2022-09-13T05:12:16;22.73;;;20.38;;
26062;SDS011;13837;48.562;12.108;2022-09-13T05:14:42;22.40;;;20.50;;
26062;SDS011;13837;48.562;12.108;2022-09-13T05:17:08;23.17;;;20.95;;
26062;SDS011;13837;48.562;12.108;2022-09-13T05:19:33;23.25;;;20.92;;
26062;SDS011;13837;48.562;12.108;2022-09-13T05:21:59;24.55;;;22.10;;
26062;SDS011;13837;48.562;12.108;2022-09-13T05:24:26;23.80;;;21.55;;
26062;SDS011;13837;48.562;12.108;2022-09-13T05:26:52;24.38;;;22.08;;
26062;SDS011;13837;48.562;12.108;2022-09-13T05:29:17;24.15;;;21.85;;
26062;SDS011;13837;48.562;12.108;2022-09-13T05:31:43;24.27;;;22.13;;
26062;SDS011;13837;48.562;12.108;2022-09-13T05:34:15;25.20;;;22.00;;
26062;SDS011;13837;48.562;12.108;2022-09-13T05:36:44;23.42;;;21.40;;
26062;SDS011;13837;48.562;12.108;2022-09-13T05:39:13;22.80;;;20.77;;
26062;SDS011;13837;48.562;12.108;2022-09-13T05:41:42;23.73;;;21.45;;
26062;SDS011;13837;48.562;12.108;2022-09-13T05:44:08;22.75;;;20.55;;
26062;SDS011;13837;48.562;12.108;2022-09-13T05:46:33;21.23;;;19.33;;
26062;SDS011;13837;48.562;12.108;2022-09-13T05:48:59;20.95;;;18.95;;
26062;SDS011;13837;48.562;12.108;2022-09-13T05:51:25;19.20;;;17.30;;
26062;SDS011;13837;48.562;12.108;2022-09-13T05:53:52;18.50;;;16.75;;
26062;SDS011;13837;48.562;12.108;2022-09-13T05:56:26;17.13;;;15.45;;
26062;SDS011;13837;48.562;12.108;2022-09-13T05:58:53;16.88;;;15.38;;
26062;SDS011;13837;48.562;12.108;2022-09-13T06:01:23;17.45;;;15.13;;
26062;SDS011;13837;48.562;12.108;2022-09-13T06:03:51;17.85;;;16.10;;
26062;SDS011;13837;48.562;12.108;2022-09-13T06:06:18;17.45;;;15.70;;
26062;SDS011;13837;48.562;12.108;2022-09-13T06:08:44;16.63;;;15.13;;
26062;SDS011;13837;48.562;12.108;2022-09-13T06:11:11;15.55;;;13.93;;
26062;SDS011;13837;48.562;12.108;2022-09-13T06:13:38;15.82;;;14.40;;
26062;SDS011;13837;48.562;12.108;2022-09-13T06:16:08;15.98;;;14.48;;
26062;SDS011;13837;48.562;12.108;2022-09-13T06:18:37;15.77;;;14.25;;
26062;SDS011;13837;48.562;12.108;2022-09-13T06:21:04;13.73;;;12.63;;
26062;SDS011;13837;48.562;12.108;2022-09-13T06:23:32;14.35;;;13.05;;
26062;SDS011;13837;48.562;12.108;2022-09-13T06:26:02;14.40;;;12.98;;
26062;SDS011;13837;48.562;12.108;2022-09-13T06:28:27;14.25;;;12.93;;
26062;SDS011;13837;48.562;12.108;2022-09-13T06:31:10;14.48;;;13.02;;
26062;SDS011;13837;48.562;12.108;2022-09-13T06:33:38;15.00;;;13.43;;
26062;SDS011;13837;48.562;12.108;2022-09-13T06:36:06;14.50;;;13.02;;
26062;SDS011;13837;48.562;12.108;2022-09-13T06:38:40;16.08;;;14.48;;
26062;SDS011;13837;48.562;12.108;2022-09-13T06:41:07;17.15;;;15.57;;
26062;SDS011;13837;48.562;12.108;2022-09-13T06:43:34;16.77;;;15.25;;
26062;SDS011;13837;48.562;12.108;2022-09-13T06:48:31;17.88;;;16.17;;
26062;SDS011;13837;48.562;12.108;2022-09-13T06:50:59;17.50;;;15.82;;
26062;SDS011;13837;48.562;12.108;2022-09-13T06:53:25;16.10;;;14.57;;
26062;SDS011;13837;48.562;12.108;2022-09-13T06:56:06;17.88;;;16.02;;
26062;SDS011;13837;48.562;12.108;2022-09-13T06:58:38;16.90;;;15.40;;
26062;SDS011;13837;48.562;12.108;2022-09-13T07:01:05;16.55;;;15.05;;
26062;SDS011;13837;48.562;12.108;2022-09-13T07:03:41;16.33;;;14.88;;
26062;SDS011;13837;48.562;12.108;2022-09-13T07:08:35;17.55;;;15.70;;
26062;SDS011;13837;48.562;12.108;2022-09-13T07:11:02;17.60;;;15.98;;
26062;SDS011;13837;48.562;12.108;2022-09-13T07:13:27;17.15;;;15.65;;
26062;SDS011;13837;48.562;12.108;2022-09-13T07:15:53;17.15;;;15.52;;
26062;SDS011;13837;48.562;12.108;2022-09-13T07:18:18;16.98;;;15.52;;
26062;SDS011;13837;48.562;12.108;2022-09-13T07:20:44;16.80;;;15.32;;
26062;SDS011;13837;48.562;12.108;2022-09-13T07:23:10;17.50;;;15.80;;
26062;SDS011;13837;48.562;12.108;2022-09-13T07:25:35;16.60;;;15.15;;
26062;SDS011;13837;48.562;12.108;2022-09-13T07:28:01;16.45;;;14.95;;
26062;SDS011;13837;48.562;12.108;2022-09-13T07:30:27;15.77;;;13.70;;
26062;SDS011;13837;48.562;12.108;2022-09-13T07:32:53;13.90;;;12.73;;
26062;SDS011;13837;48.562;12.108;2022-09-13T07:35:18;12.60;;;11.50;;
26062;SDS011;13837;48.562;12.108;2022-09-13T07:37:44;13.93;;;12.80;;
26062;SDS011;13837;48.562;12.108;2022-09-13T07:40:10;12.05;;;11.15;;
26062;SDS011;13837;48.562;12.108;2022-09-13T07:42:37;11.75;;;10.80;;
26062;SDS011;13837;48.562;12.108;2022-09-13T07:45:02;10.90;;;10.00;;
26062;SDS011;13837;48.562;12.108;2022-09-13T07:47:31;10.35;;;9.55;;
26062;SDS011;13837;48.562;12.108;2022-09-13T07:52:23;10.93;;;10.13;;
26062;SDS011;13837;48.562;12.108;2022-09-13T07:54:48;10.57;;;9.77;;
26062;SDS011;13837;48.562;12.108;2022-09-13T07:57:14;11.57;;;10.48;;
26062;SDS011;13837;48.562;12.108;2022-09-13T07:59:40;10.02;;;9.15;;
26062;SDS011;13837;48.562;12.108;2022-09-13T08:02:07;9.13;;;8.38;;
26062;SDS011;13837;48.562;12.108;2022-09-13T08:04:33;9.32;;;8.38;;
26062;SDS011;13837;48.562;12.108;2022-09-13T08:07:00;10.02;;;9.23;;
26062;SDS011;13837;48.562;12.108;2022-09-13T08:09:25;9.77;;;8.98;;
26062;SDS011;13837;48.562;12.108;2022-09-13T08:11:51;9.10;;;8.50;;
26062;SDS011;13837;48.562;12.108;2022-09-13T08:14:18;9.50;;;8.70;;
26062;SDS011;13837;48.562;12.108;2022-09-13T08:16:45;9.77;;;8.90;;
26062;SDS011;13837;48.562;12.108;2022-09-13T08:19:12;9.90;;;9.15;;
26062;SDS011;13837;48.562;12.108;2022-09-13T08:21:40;10.70;;;9.68;;
26062;SDS011;13837;48.562;12.108;2022-09-13T08:24:07;9.85;;;9.07;;
26062;SDS011;13837;48.562;12.108;2022-09-13T08:26:38;10.20;;;9.30;;
26062;SDS011;13837;48.562;12.108;2022-09-13T08:29:04;10.50;;;9.57;;
26062;SDS011;13837;48.562;12.108;2022-09-13T08:31:31;9.38;;;8.57;;
26062;SDS011;13837;48.562;12.108;2022-09-13T08:33:57;9.98;;;8.98;;
26062;SDS011;13837;48.562;12.108;2022-09-13T08:36:23;10.20;;;9.40;;
26062;SDS011;13837;48.562;12.108;2022-09-13T08:38:54;9.23;;;8.52;;
26062;SDS011;13837;48.562;12.108;2022-09-13T08:47:06;8.90;;;8.10;;
26062;SDS011;13837;48.562;12.108;2022-09-13T08:49:43;9.30;;;7.63;;
26062;SDS011;13837;48.562;12.108;2022-09-13T08:54:58;8.07;;;7.35;;
26062;SDS011;13837;48.562;12.108;2022-09-13T08:57:31;7.55;;;6.45;;
26062;SDS011;13837;48.562;12.108;2022-09-13T09:00:20;6.43;;;5.88;;
26062;SDS011;13837;48.562;12.108;2022-09-13T09:02:58;7.60;;;6.07;;
26062;SDS011;13837;48.562;12.108;2022-09-13T09:05:30;6.97;;;6.40;;
26062;SDS011;13837;48.562;12.108;2022-09-13T09:08:10;6.63;;;5.97;;
26062;SDS011;13837;48.562;12.108;2022-09-13T09:10:44;9.20;;;5.75;;
26062;SDS011;13837;48.562;12.108;2022-09-13T09:15:42;6.70;;;5.22;;
26062;SDS011;13837;48.562;12.108;2022-09-13T09:18:13;5.70;;;5.10;;
26062;SDS011;13837;48.562;12.108;2022-09-13T09:20:56;4.78;;;4.38;;
26062;SDS011;13837;48.562;12.108;2022-09-13T09:25:59;7.85;;;4.88;;
26062;SDS011;13837;48.562;12.108;2022-09-13T09:28:37;4.80;;;4.35;;
26062;SDS011;13837;48.562;12.108;2022-09-13T09:31:04;4.82;;;4.18;;
26062;SDS011;13837;48.562;12.108;2022-09-13T09:36:28;5.25;;;4.32;;
26062;SDS011;13837;48.562;12.108;2022-09-13T09:39:14;5.85;;;3.70;;
26062;SDS011;13837;48.562;12.108;2022-09-13T09:41:40;6.40;;;4.18;;
26062;SDS011;13837;48.562;12.108;2022-09-13T09:44:21;5.25;;;4.32;;
26062;SDS011;13837;48.562;12.108;2022-09-13T09:46:58;9.75;;;3.58;;
26062;SDS011;13837;48.562;12.108;2022-09-13T09:49:38;9.30;;;4.10;;
26062;SDS011;13837;48.562;12.108;2022-09-13T09:55:11;3.70;;;3.20;;
26062;SDS011;13837;48.562;12.108;2022-09-13T09:58:05;2.85;;;2.65;;
26062;SDS011;13837;48.562;12.108;2022-09-13T10:00:51;5.72;;;3.28;;
26062;SDS011;13837;48.562;12.108;2022-09-13T10:06:03;4.32;;;3.00;;
26062;SDS011;13837;48.562;12.108;2022-09-13T10:08:34;3.60;;;3.10;;
26062;SDS011;13837;48.562;12.108;2022-09-13T10:11:01;3.33;;;2.37;;
26062;SDS011;13837;48.562;12.108;2022-09-13T10:13:28;2.90;;;2.60;;
26062;SDS011;13837;48.562;12.108;2022-09-13T10:18:47;4.18;;;2.83;;
26062;SDS011;13837;48.562;12.108;2022-09-13T10:23:41;4.18;;;2.53;;
26062;SDS011;13837;48.562;12.108;2022-09-13T10:26:09;3.28;;;2.63;;
26062;SDS011;13837;48.562;12.108;2022-09-13T10:31:20;4.00;;;2.70;;
26062;SDS011;13837;48.562;12.108;2022-09-13T10:34:04;2.30;;;2.10;;
26062;SDS011;13837;48.562;12.108;2022-09-13T10:36:36;5.13;;;2.40;;
26062;SDS011;13837;48.562;12.108;2022-09-13T10:39:14;3.85;;;2.75;;
26062;SDS011;13837;48.562;12.108;2022-09-13T10:41:47;2.35;;;2.10;;
26062;SDS011;13837;48.562;12.108;2022-09-13T10:44:42;4.38;;;2.78;;
26062;SDS011;13837;48.562;12.108;2022-09-13T10:49:58;2.20;;;2.00;;
26062;SDS011;13837;48.562;12.108;2022-09-13T10:52:52;3.92;;;1.98;;
26062;SDS011;13837;48.562;12.108;2022-09-13T11:36:49;3.83;;;1.73;;
26062;SDS011;13837;48.562;12.108;2022-09-13T11:39:30;4.65;;;2.25;;
26062;SDS011;13837;48.562;12.108;2022-09-13T11:53:12;3.10;;;2.03;;
26062;SDS011;13837;48.562;12.108;2022-09-13T11:55:42;2.70;;;2.20;;
26062;SDS011;13837;48.562;12.108;2022-09-13T11:58:28;3.88;;;2.17;;
26062;SDS011;13837;48.562;12.108;2022-09-13T12:01:01;7.32;;;2.10;;
26062;SDS011;13837;48.562;12.108;2022-09-13T12:06:39;5.05;;;2.20;;
26062;SDS011;13837;48.562;12.108;2022-09-13T12:09:12;3.30;;;2.55;;
26062;SDS011;13837;48.562;12.108;2022-09-13T12:12:07;2.60;;;2.17;;
26062;SDS011;13837;48.562;12.108;2022-09-13T12:14:39;3.42;;;2.17;;
26062;SDS011;13837;48.562;12.108;2022-09-13T12:17:57;3.33;;;2.33;;
26062;SDS011;13837;48.562;12.108;2022-09-13T12:20:12;2.28;;;2.08;;
26062;SDS011;13837;48.562;12.108;2022-09-13T12:23:00;2.10;;;1.98;;
26062;SDS011;13837;48.562;12.108;2022-09-13T12:25:44;4.13;;;2.05;;
26062;SDS011;13837;48.562;12.108;2022-09-13T12:28:22;2.40;;;2.30;;
26062;SDS011;13837;48.562;12.108;2022-09-13T12:30:59;3.33;;;1.95;;
26062;SDS011;13837;48.562;12.108;2022-09-13T12:33:29;4.22;;;2.20;;
26062;SDS011;13837;48.562;12.108;2022-09-13T12:36:02;3.00;;;2.20;;
26062;SDS011;13837;48.562;12.108;2022-09-13T12:39:01;4.65;;;2.05;;
26062;SDS011;13837;48.562;12.108;2022-09-13T12:46:55;6.07;;;2.20;;
26062;SDS011;13837;48.562;12.108;2022-09-13T13:01:16;2.83;;;2.08;;
26062;SDS011;13837;48.562;12.108;2022-09-13T13:04:00;2.67;;;2.13;;
26062;SDS011;13837;48.562;12.108;2022-09-13T13:07:15;4.53;;;2.08;;
26062;SDS011;13837;48.562;12.108;2022-09-13T13:14:28;3.03;;;2.30;;
26062;SDS011;13837;48.562;12.108;2022-09-13T13:19:58;2.10;;;1.90;;
26062;SDS011;13837;48.562;12.108;2022-09-13T13:27:59;2.67;;;1.90;;
26062;SDS011;13837;48.562;12.108;2022-09-13T13:33:12;2.92;;;1.90;;
26062;SDS011;13837;48.562;12.108;2022-09-13T13:35:44;3.42;;;1.75;;
26062;SDS011;13837;48.562;12.108;2022-09-13T13:38:30;6.05;;;2.08;;
26062;SDS011;13837;48.562;12.108;2022-09-13T13:41:07;2.10;;;1.95;;
26062;SDS011;13837;48.562;12.108;2022-09-13T13:43:52;3.60;;;2.00;;
26062;SDS011;13837;48.562;12.108;2022-09-13T13:51:16;3.03;;;1.90;;
26062;SDS011;13837;48.562;12.108;2022-09-13T13:53:48;4.53;;;2.33;;
26062;SDS011;13837;48.562;12.108;2022-09-13T13:56:21;7.32;;;2.30;;
26062;SDS011;13837;48.562;12.108;2022-09-13T13:59:08;2.10;;;1.90;;
26062;SDS011;13837;48.562;12.108;2022-09-13T14:01:46;1.98;;;1.88;;
26062;SDS011;13837;48.562;12.108;2022-09-13T14:12:43;2.67;;;2.30;;
26062;SDS011;13837;48.562;12.108;2022-09-13T14:15:31;4.13;;;2.00;;
26062;SDS011;13837;48.562;12.108;2022-09-13T14:21:31;2.20;;;2.00;;
26062;SDS011;13837;48.562;12.108;2022-09-13T14:24:15;2.20;;;2.00;;
26062;SDS011;13837;48.562;12.108;2022-09-13T14:26:52;1.90;;;1.80;;
26062;SDS011;13837;48.562;12.108;2022-09-13T14:29:22;2.65;;;1.88;;
26062;SDS011;13837;48.562;12.108;2022-09-13T14:31:51;3.40;;;1.70;;
26062;SDS011;13837;48.562;12.108;2022-09-13T14:34:22;4.43;;;2.20;;
26062;SDS011;13837;48.562;12.108;2022-09-13T14:36:58;2.15;;;1.88;;
26062;SDS011;13837;48.562;12.108;2022-09-13T14:39:26;2.10;;;1.90;;
26062;SDS011;13837;48.562;12.108;2022-09-13T14:41:56;2.40;;;2.20;;
26062;SDS011;13837;48.562;12.108;2022-09-13T14:44:24;2.47;;;2.10;;
26062;SDS011;13837;48.562;12.108;2022-09-13T14:46:57;2.95;;;2.17;;
26062;SDS011;13837;48.562;12.108;2022-09-13T14:49:30;3.20;;;2.00;;
26062;SDS011;13837;48.562;12.108;2022-09-13T14:52:03;3.90;;;1.95;;
26062;SDS011;13837;48.562;12.108;2022-09-13T14:54:36;2.60;;;2.20;;
26062;SDS011;13837;48.562;12.108;2022-09-13T14:57:08;2.15;;;2.00;;
26062;SDS011;13837;48.562;12.108;2022-09-13T14:59:46;3.55;;;2.10;;
26062;SDS011;13837;48.562;12.108;2022-09-13T15:02:16;2.53;;;2.30;;
26062;SDS011;13837;48.562;12.108;2022-09-13T15:04:55;2.35;;;2.15;;
26062;SDS011;13837;48.562;12.108;2022-09-13T15:07:27;3.85;;;2.03;;
26062;SDS011;13837;48.562;12.108;2022-09-13T15:17:51;2.83;;;2.40;;
26062;SDS011;13837;48.562;12.108;2022-09-13T15:20:20;2.75;;;2.33;;
26062;SDS011;13837;48.562;12.108;2022-09-13T15:22:46;3.33;;;2.35;;
26062;SDS011;13837;48.562;12.108;2022-09-13T15:25:19;2.58;;;2.38;;
26062;SDS011;13837;48.562;12.108;2022-09-13T15:27:48;3.92;;;2.42;;
26062;SDS011;13837;48.562;12.108;2022-09-13T15:30:18;4.00;;;2.70;;
26062;SDS011;13837;48.562;12.108;2022-09-13T15:35:38;4.32;;;2.60;;
26062;SDS011;13837;48.562;12.108;2022-09-13T15:41:01;4.65;;;2.55;;
26062;SDS011;13837;48.562;12.108;2022-09-13T15:43:37;4.68;;;3.00;;
26062;SDS011;13837;48.562;12.108;2022-09-13T15:46:03;4.10;;;2.78;;
26062;SDS011;13837;48.562;12.108;2022-09-13T15:48:33;2.65;;;2.45;;
26062;SDS011;13837;48.562;12.108;2022-09-13T15:51:07;3.97;;;2.50;;
26062;SDS011;13837;48.562;12.108;2022-09-13T15:53:36;4.78;;;2.53;;
26062;SDS011;13837;48.562;12.108;2022-09-13T15:56:07;2.78;;;2.47;;
26062;SDS011;13837;48.562;12.108;2022-09-13T15:58:34;4.70;;;2.75;;
26062;SDS011;13837;48.562;12.108;2022-09-13T16:01:01;5.80;;;2.90;;
26062;SDS011;13837;48.562;12.108;2022-09-13T16:03:27;4.07;;;3.03;;
26062;SDS011;13837;48.562;12.108;2022-09-13T16:05:53;3.55;;;3.10;;
26062;SDS011;13837;48.562;12.108;2022-09-13T16:08:19;3.45;;;3.13;;
26062;SDS011;13837;48.562;12.108;2022-09-13T16:10:44;6.47;;;3.67;;
26062;SDS011;13837;48.562;12.108;2022-09-13T16:13:10;6.45;;;4.13;;
26062;SDS011;13837;48.562;12.108;2022-09-13T16:15:36;4.95;;;4.55;;
26062;SDS011;13837;48.562;12.108;2022-09-13T16:18:02;5.78;;;4.38;;
26062;SDS011;13837;48.562;12.108;2022-09-13T16:20:28;8.88;;;5.35;;
26062;SDS011;13837;48.562;12.108;2022-09-13T16:22:54;8.30;;;4.75;;
26062;SDS011;13837;48.562;12.108;2022-09-13T16:25:19;6.88;;;5.65;;
26062;SDS011;13837;48.562;12.108;2022-09-13T16:27:45;5.72;;;5.10;;
26062;SDS011;13837;48.562;12.108;2022-09-13T16:30:12;5.90;;;5.38;;
26062;SDS011;13837;48.562;12.108;2022-09-13T16:32:39;8.05;;;5.95;;
26062;SDS011;13837;48.562;12.108;2022-09-13T16:35:06;9.05;;;5.90;;
26062;SDS011;13837;48.562;12.108;2022-09-13T16:37:32;9.05;;;6.70;;
26062;SDS011;13837;48.562;12.108;2022-09-13T16:39:58;8.60;;;6.40;;
26062;SDS011;13837;48.562;12.108;2022-09-13T16:42:24;8.98;;;6.90;;
26062;SDS011;13837;48.562;12.108;2022-09-13T16:44:50;9.80;;;6.82;;
26062;SDS011;13837;48.562;12.108;2022-09-13T16:47:16;9.55;;;6.85;;
26062;SDS011;13837;48.562;12.108;2022-09-13T16:49:42;8.43;;;6.82;;
26062;SDS011;13837;48.562;12.108;2022-09-13T16:52:08;11.25;;;6.88;;
26062;SDS011;13837;48.562;12.108;2022-09-13T16:54:34;9.55;;;7.28;;
26062;SDS011;13837;48.562;12.108;2022-09-13T16:57:01;10.05;;;6.50;;
26062;SDS011;13837;48.562;12.108;2022-09-13T16:59:28;9.57;;;6.38;;
26062;SDS011;13837;48.562;12.108;2022-09-13T17:01:55;7.75;;;6.25;;
26062;SDS011;13837;48.562;12.108;2022-09-13T17:04:21;8.07;;;6.65;;
26062;SDS011;13837;48.562;12.108;2022-09-13T17:06:48;8.07;;;6.55;;
26062;SDS011;13837;48.562;12.108;2022-09-13T17:09:14;9.25;;;6.55;;
26062;SDS011;13837;48.562;12.108;2022-09-13T17:11:41;10.07;;;7.43;;
26062;SDS011;13837;48.562;12.108;2022-09-13T17:14:09;7.47;;;6.78;;
26062;SDS011;13837;48.562;12.108;2022-09-13T17:16:39;7.68;;;6.95;;
26062;SDS011;13837;48.562;12.108;2022-09-13T17:19:11;7.22;;;6.53;;
26062;SDS011;13837;48.562;12.108;2022-09-13T17:21:42;7.80;;;6.78;;
26062;SDS011;13837;48.562;12.108;2022-09-13T17:24:08;7.43;;;6.43;;
26062;SDS011;13837;48.562;12.108;2022-09-13T17:26:33;7.57;;;6.47;;
26062;SDS011;13837;48.562;12.108;2022-09-13T17:28:59;7.85;;;6.43;;
26062;SDS011;13837;48.562;12.108;2022-09-13T17:31:25;9.35;;;6.55;;
26062;SDS011;13837;48.562;12.108;2022-09-13T17:33:51;8.63;;;6.75;;
26062;SDS011;13837;48.562;12.108;2022-09-13T17:36:17;10.98;;;6.90;;
26062;SDS011;13837;48.562;12.108;2022-09-13T17:38:43;7.95;;;7.15;;
26062;SDS011;13837;48.562;12.108;2022-09-13T17:43:37;8.77;;;7.47;;
26062;SDS011;13837;48.562;12.108;2022-09-13T17:46:04;10.10;;;7.70;;
26062;SDS011;13837;48.562;12.108;2022-09-13T17:48:31;11.88;;;8.65;;
26062;SDS011;13837;48.562;12.108;2022-09-13T17:51:03;13.38;;;8.80;;
26062;SDS011;13837;48.562;12.108;2022-09-13T17:53:41;11.60;;;8.88;;
26062;SDS011;13837;48.562;12.108;2022-09-13T17:56:10;11.13;;;8.82;;
26062;SDS011;13837;48.562;12.108;2022-09-13T17:58:35;10.40;;;9.30;;
26062;SDS011;13837;48.562;12.108;2022-09-13T18:01:02;12.50;;;8.77;;
26062;SDS011;13837;48.562;12.108;2022-09-13T18:03:30;10.57;;;9.48;;
26062;SDS011;13837;48.562;12.108;2022-09-13T18:05:58;10.60;;;9.60;;
26062;SDS011;13837;48.562;12.108;2022-09-13T18:08:28;12.82;;;9.40;;
26062;SDS011;13837;48.562;12.108;2022-09-13T18:11:03;10.68;;;9.43;;